Time;durP1;ratioP1;P1;durP2;ratioP2;P2;SDS_P1;SDS_P2;PMS_P1;PMS_P2;Temp;Humidity;BMP_temperature;BMP_pressure;BME280_temperature;BME280_humidity;BME280_pressure;Samples;Min_cycle;Max_cycle;Signal;HPM_P1;HPM_P2
2021/01/02 00:00:07;;;;;;;;;;;;;;;;;;5012296;28;19925;-69
2021/01/02 00:02:33;;;;;;;;;;;;;;;;;;5016873;28;19925;-68
2021/01/02 00:05:00;;;;;;;;;;;;;;;;;;5009681;28;20107;-68
2021/01/02 00:07:26;;;;;;;;;;;;;;;;;;5006573;28;19926;-68
2021/01/02 00:09:52;;;;;;;;;;;;;;;;;;5012942;28;20020;-65
2021/01/02 00:12:19;;;;;;;;;;;;;;;;;;5010495;28;19929;-65
2021/01/02 00:14:45;;;;;;;;;;;;;;;;;;5012138;28;19925;-66
2021/01/02 00:17:12;;;;;;;;;;;;;;;;;;5015497;28;19926;-66
2021/01/02 00:19:38;;;;;;;;;;;;;;;;;;5005692;28;20364;-68
2021/01/02 00:22:05;;;;;;;;;;;;;;;;;;5012547;28;20024;-65
2021/01/02 00:24:31;;;;;;;;;;;;;;;;;;5011950;28;19929;-66
2021/01/02 00:26:58;;;;;;;;;;;;;;;;;;5010832;28;19925;-66
2021/01/02 00:29:24;;;;;;;;;;;;;;;;;;5012222;28;19947;-66
2021/01/02 00:31:51;;;;;;;;;;;;;;;;;;5010953;28;19929;-67
2021/01/02 00:34:17;;;;;;;;;;;;;;;;;;5019229;28;20310;-66
2021/01/02 00:36:44;;;;;;;;;;;;;;;;;;5011862;28;19933;-66
2021/01/02 00:39:10;;;;;;;;;;;;;;;;;;5011789;28;20403;-66
2021/01/02 00:41:37;;;;;;;;;;;;;;;;;;5016208;28;19933;-67
2021/01/02 00:44:03;;;;;;;;;;;;;;;;;;5004817;28;20280;-67
2021/01/02 00:46:30;;;;;;;;;;;;;;;;;;5007104;28;19931;-66
2021/01/02 00:48:56;;;;;;;;;;;;;;;;;;5010991;28;19925;-66
2021/01/02 00:51:24;;;;;;;;;;;;;;;;;;5008120;28;19925;-66
2021/01/02 00:53:51;;;;;;;;;;;;;;;;;;5010908;28;20392;-66
2021/01/02 00:56:17;;;;;;;;;;;;;;;;;;5004304;28;19939;-66
2021/01/02 00:58:44;;;;;;;;;;;;;;;;;;5012111;28;20379;-68
2021/01/02 01:01:10;;;;;;;;;;;;;;;;;;5013962;28;19925;-66
2021/01/02 01:03:37;;;;;;;;;;;;;;;;;;5010838;28;19977;-66
2021/01/02 01:06:03;;;;;;;;;;;;;;;;;;5012477;28;19926;-66
2021/01/02 01:08:30;;;;;;;;;;;;;;;;;;5011456;28;19932;-67
2021/01/02 01:10:56;;;;;;;;;;;;;;;;;;5011561;28;19929;-67
2021/01/02 01:13:23;;;;;;;;;;;;;;;;;;5013906;28;19929;-67
2021/01/02 01:15:49;;;;;;;;;;;;;;;;;;5008220;28;19960;-67
2021/01/02 01:18:15;;;;;;;;;;;;;;;;;;5011850;28;20050;-66
2021/01/02 01:20:42;;;;;;;;;;;;;;;;;;5011222;28;20402;-67
2021/01/02 01:23:08;;;;;;;;;;;;;;;;;;5008469;28;20013;-66
2021/01/02 01:25:35;;;;;;;;;;;;;;;;;;5010838;28;19926;-66
2021/01/02 01:28:01;;;;;;;;;;;;;;;;;;5011871;28;19929;-65
2021/01/02 01:30:29;;;;;;;;;;;;;;;;;;5022809;28;20331;-67
2021/01/02 01:32:56;;;;;;;;;;;;;;;;;;5011795;28;19925;-67
2021/01/02 01:35:22;;;;;;;;;;;;;;;;;;5015177;28;20314;-67
2021/01/02 01:37:49;;;;;;;;;;;;;;;;;;5014478;28;19929;-68
2021/01/02 01:40:15;;;;;;;;;;;;;;;;;;5013924;28;19929;-67
2021/01/02 01:42:42;;;;;;;;;;;;;;;;;;5013751;28;19933;-68
2021/01/02 01:45:08;;;;;;;;;;;;;;;;;;5015240;28;19995;-68
2021/01/02 01:47:35;;;;;;;;;;;;;;;;;;5014564;28;20415;-67
2021/01/02 01:50:01;;;;;;;;;;;;;;;;;;5016237;28;19933;-66
2021/01/02 01:52:28;;;;;;;;;;;;;;;;;;5013083;28;20020;-68
2021/01/02 01:54:54;;;;;;;;;;;;;;;;;;5015542;28;19933;-68
2021/01/02 01:57:21;;;;;;;;;;;;;;;;;;5014541;28;19929;-68
2021/01/02 01:59:47;;;;;;;;;;;;;;;;;;5014803;28;19980;-68
2021/01/02 02:02:14;;;;;;;;;;;;;;;;;;5006133;28;19925;-68
2021/01/02 02:04:40;;;;;;;;;;;;;;;;;;5013571;28;19925;-68
2021/01/02 02:07:07;;;;;;;;;;;;;;;;;;5007125;28;19983;-68
2021/01/02 02:09:33;;;;;;;;;;;;;;;;;;5013709;28;19926;-67
2021/01/02 02:12:00;;;;;;;;;;;;;;;;;;5012720;28;19926;-67
2021/01/02 02:14:26;;;;;;;;;;;;;;;;;;5013442;28;20004;-68
2021/01/02 02:16:53;;;;;;;;;;;;;;;;;;5004817;28;19926;-66
2021/01/02 02:19:19;;;;;;;;;;;;;;;;;;5014378;28;19971;-68
2021/01/02 02:21:45;;;;;;;;;;;;;;;;;;5014590;28;20418;-68
2021/01/02 02:24:12;;;;;;;;;;;;;;;;;;5013964;28;19925;-69
2021/01/02 02:26:38;;;;;;;;;;;;;;;;;;5021556;28;20313;-67
2021/01/02 02:29:05;;;;;;;;;;;;;;;;;;5013059;28;19933;-67
2021/01/02 02:31:31;;;;;;;;;;;;;;;;;;5015230;28;19929;-68
2021/01/02 02:33:58;;;;;;;;;;;;;;;;;;5013052;28;19926;-70
2021/01/02 02:36:24;;;;;;;;;;;;;;;;;;5013077;28;19933;-69
2021/01/02 02:38:51;;;;;;;;;;;;;;;;;;5013893;28;20012;-68
2021/01/02 02:41:17;;;;;;;;;;;;;;;;;;5014727;28;19926;-68
2021/01/02 02:43:44;;;;;;;;;;;;;;;;;;5013661;28;19926;-67
2021/01/02 02:46:10;;;;;;;;;;;;;;;;;;5014039;28;19926;-68
2021/01/02 02:48:37;;;;;;;;;;;;;;;;;;5010781;28;20182;-68
2021/01/02 02:51:03;;;;;;;;;;;;;;;;;;5010849;28;19926;-67
2021/01/02 02:53:30;;;;;;;;;;;;;;;;;;5010735;28;20342;-67
2021/01/02 02:55:56;;;;;;;;;;;;;;;;;;5020502;28;20162;-67
2021/01/02 02:58:23;;;;;;;;;;;;;;;;;;5012944;28;20303;-69
2021/01/02 03:00:49;;;;;;;;;;;;;;;;;;5007916;28;19979;-69
2021/01/02 03:03:16;;;;;;;;;;;;;;;;;;5019813;28;19925;-68
2021/01/02 03:05:43;;;;;;;;;;;;;;;;;;5013051;28;20303;-68
2021/01/02 03:08:12;;;;;;;;;;;;;;;;;;5011265;28;19925;-68
2021/01/02 03:10:38;;;;;;;;;;;;;;;;;;5012764;28;20060;-68
2021/01/02 03:13:05;;;;;;;;;;;;;;;;;;5010183;28;19979;-68
2021/01/02 03:15:31;;;;;;;;;;;;;;;;;;5017978;28;20008;-69
2021/01/02 03:17:58;;;;;;;;;;;;;;;;;;5036850;28;19976;-71
2021/01/02 03:20:24;;;;;;;;;;;;;;;;;;5020500;28;19925;-68
2021/01/02 03:22:51;;;;;;;;;;;;;;;;;;5004669;28;20454;-67
2021/01/02 03:25:17;;;;;;;;;;;;;;;;;;5009822;28;20027;-67
2021/01/02 03:27:44;;;;;;;;;;;;;;;;;;5011684;28;20028;-67
2021/01/02 03:30:10;;;;;;;;;;;;;;;;;;5016713;28;20383;-68
2021/01/02 03:32:37;;;;;;;;;;;;;;;;;;5012162;28;19925;-67
2021/01/02 03:35:05;;;;;;;;;;;;;;;;;;5011874;28;20396;-68
2021/01/02 03:37:31;;;;;;;;;;;;;;;;;;5015117;28;20024;-66
2021/01/02 03:39:58;;;;;;;;;;;;;;;;;;5012031;28;20372;-71
2021/01/02 03:42:24;;;;;;;;;;;;;;;;;;5012475;28;19925;-68
2021/01/02 03:44:51;;;;;;;;;;;;;;;;;;5014242;28;20399;-67
2021/01/02 03:47:18;;;;;;;;;;;;;;;;;;5015927;28;19925;-68
2021/01/02 03:49:44;;;;;;;;;;;;;;;;;;5010621;28;19926;-68
2021/01/02 03:52:11;;;;;;;;;;;;;;;;;;5012178;28;20422;-67
2021/01/02 03:54:37;;;;;;;;;;;;;;;;;;5014200;28;19940;-68
2021/01/02 03:57:04;;;;;;;;;;;;;;;;;;5011874;28;19925;-68
2021/01/02 03:59:30;;;;;;;;;;;;;;;;;;5012623;28;19926;-67
2021/01/02 04:01:56;;;;;;;;;;;;;;;;;;5013493;28;19986;-68
2021/01/02 04:04:23;;;;;;;;;;;;;;;;;;5012211;28;19926;-67
2021/01/02 04:06:50;;;;;;;;;;;;;;;;;;5016837;28;19932;-67
2021/01/02 04:09:17;;;;;;;;;;;;;;;;;;5013350;28;19933;-67
2021/01/02 04:11:43;;;;;;;;;;;;;;;;;;5017714;28;19983;-67
2021/01/02 04:14:10;;;;;;;;;;;;;;;;;;5007508;28;20283;-67
2021/01/02 04:16:36;;;;;;;;;;;;;;;;;;5011082;28;19926;-67
2021/01/02 04:19:03;;;;;;;;;;;;;;;;;;5013326;28;20350;-68
2021/01/02 04:21:29;;;;;;;;;;;;;;;;;;5011483;28;19925;-68
2021/01/02 04:23:56;;;;;;;;;;;;;;;;;;5010931;28;19929;-67
2021/01/02 04:26:22;;;;;;;;;;;;;;;;;;5010445;28;19925;-67
2021/01/02 04:28:49;;;;;;;;;;;;;;;;;;5010695;28;20387;-67
2021/01/02 04:31:15;;;;;;;;;;;;;;;;;;5008217;28;19925;-67
2021/01/02 04:33:42;;;;;;;;;;;;;;;;;;5012149;28;19971;-67
2021/01/02 04:36:08;;;;;;;;;;;;;;;;;;5002116;28;19936;-68
2021/01/02 04:38:35;;;;;;;;;;;;;;;;;;5011896;28;19926;-67
2021/01/02 04:41:01;;;;;;;;;;;;;;;;;;5011428;28;19934;-67
2021/01/02 04:43:28;;;;;;;;;;;;;;;;;;5011167;28;19925;-70
2021/01/02 04:45:54;;;;;;;;;;;;;;;;;;5011283;28;20388;-67
2021/01/02 04:48:21;;;;;;;;;;;;;;;;;;5009492;28;19937;-67
2021/01/02 04:50:47;;;;;;;;;;;;;;;;;;5011328;28;19926;-66
2021/01/02 04:53:14;;;;;;;;;;;;;;;;;;5011666;28;19925;-67
2021/01/02 04:55:40;;;;;;;;;;;;;;;;;;5004740;28;19936;-68
2021/01/02 04:58:07;;;;;;;;;;;;;;;;;;5008752;28;19936;-68
2021/01/02 05:00:34;;;;;;;;;;;;;;;;;;5008123;28;19988;-67
2021/01/02 05:03:00;;;;;;;;;;;;;;;;;;5008629;28;20035;-68
2021/01/02 05:05:27;;;;;;;;;;;;;;;;;;5009033;28;19925;-68
2021/01/02 05:07:53;;;;;;;;;;;;;;;;;;5010311;28;19932;-67
2021/01/02 05:10:20;;;;;;;;;;;;;;;;;;5017380;28;20387;-68
2021/01/02 05:12:46;;;;;;;;;;;;;;;;;;5015635;28;19933;-67
2021/01/02 05:15:13;;;;;;;;;;;;;;;;;;5027065;23;19926;-68
2021/01/02 05:17:39;;;;;;;;;;;;;;;;;;5007592;28;19929;-68
2021/01/02 05:20:06;;;;;;;;;;;;;;;;;;5010744;28;19929;-68
2021/01/02 05:22:32;;;;;;;;;;;;;;;;;;5010885;28;19983;-68
2021/01/02 05:24:59;;;;;;;;;;;;;;;;;;5008175;28;20406;-67
2021/01/02 05:27:25;;;;;;;;;;;;;;;;;;5012013;28;19926;-68
2021/01/02 05:29:52;;;;;;;;;;;;;;;;;;5012205;28;20387;-68
2021/01/02 05:32:18;;;;;;;;;;;;;;;;;;5010730;28;19926;-68
2021/01/02 05:34:45;;;;;;;;;;;;;;;;;;5010666;28;19934;-68
2021/01/02 05:37:11;;;;;;;;;;;;;;;;;;5010569;28;19926;-68
2021/01/02 05:39:38;;;;;;;;;;;;;;;;;;5010026;28;20482;-68
2021/01/02 05:42:04;;;;;;;;;;;;;;;;;;5010527;28;19976;-68
2021/01/02 05:44:31;;;;;;;;;;;;;;;;;;5010909;28;19926;-68
2021/01/02 05:46:57;;;;;;;;;;;;;;;;;;5011055;28;19944;-69
2021/01/02 05:49:24;;;;;;;;;;;;;;;;;;5010174;28;19929;-68
2021/01/02 05:51:50;;;;;;;;;;;;;;;;;;5010077;28;19930;-68
2021/01/02 05:54:17;;;;;;;;;;;;;;;;;;5010762;28;20306;-68
2021/01/02 05:56:44;;;;;;;;;;;;;;;;;;5010630;28;19933;-68
2021/01/02 05:59:10;;;;;;;;;;;;;;;;;;5013083;28;20306;-68
2021/01/02 06:01:36;;;;;;;;;;;;;;;;;;5011675;28;19936;-68
2021/01/02 06:04:03;;;;;;;;;;;;;;;;;;5016742;28;19947;-68
2021/01/02 06:06:29;;;;;;;;;;;;;;;;;;5014651;28;19926;-68
2021/01/02 06:08:56;;;;;;;;;;;;;;;;;;5007035;28;20024;-69
2021/01/02 06:11:23;;;;;;;;;;;;;;;;;;5006623;28;19932;-68
2021/01/02 06:13:49;;;;;;;;;;;;;;;;;;5009080;28;19972;-69
2021/01/02 06:16:16;;;;;;;;;;;;;;;;;;5010479;28;19926;-67
2021/01/02 06:18:42;;;;;;;;;;;;;;;;;;5013035;28;19926;-69
2021/01/02 06:21:11;;;;;;;;;;;;;;;;;;5008145;28;19933;-68
2021/01/02 06:23:37;;;;;;;;;;;;;;;;;;5013323;28;19929;-68
2021/01/02 06:26:04;;;;;;;;;;;;;;;;;;5007206;28;19972;-69
2021/01/02 06:28:31;;;;;;;;;;;;;;;;;;5008982;28;20044;-69
2021/01/02 06:30:57;;;;;;;;;;;;;;;;;;5013889;28;19933;-67
2021/01/02 06:33:24;;;;;;;;;;;;;;;;;;5009002;28;19932;-67
2021/01/02 06:35:50;;;;;;;;;;;;;;;;;;5011185;28;20012;-67
2021/01/02 06:38:17;;;;;;;;;;;;;;;;;;5014170;28;19940;-68
2021/01/02 06:40:43;;;;;;;;;;;;;;;;;;5013588;28;19932;-68
2021/01/02 06:43:11;;;;;;;;;;;;;;;;;;5009548;28;20298;-69
2021/01/02 06:45:37;;;;;;;;;;;;;;;;;;5006976;28;19925;-68
2021/01/02 06:48:04;;;;;;;;;;;;;;;;;;5012466;28;20146;-68
2021/01/02 06:50:30;;;;;;;;;;;;;;;;;;5006320;28;19926;-68
2021/01/02 06:52:57;;;;;;;;;;;;;;;;;;5013971;28;19929;-67
2021/01/02 06:55:23;;;;;;;;;;;;;;;;;;5012636;28;19944;-67
2021/01/02 06:57:50;;;;;;;;;;;;;;;;;;5012334;28;19925;-68
2021/01/02 07:00:16;;;;;;;;;;;;;;;;;;5011986;28;19925;-67
2021/01/02 07:02:43;;;;;;;;;;;;;;;;;;5016170;28;20015;-68
2021/01/02 07:05:09;;;;;;;;;;;;;;;;;;5012807;28;19932;-68
2021/01/02 07:07:36;;;;;;;;;;;;;;;;;;5013048;28;19925;-68
2021/01/02 07:10:02;;;;;;;;;;;;;;;;;;5013035;28;19925;-68
2021/01/02 07:12:29;;;;;;;;;;;;;;;;;;5009497;28;19937;-68
2021/01/02 07:14:55;;;;;;;;;;;;;;;;;;5024430;28;20488;-68
2021/01/02 07:17:22;;;;;;;;;;;;;;;;;;5006603;28;19926;-68
2021/01/02 07:19:48;;;;;;;;;;;;;;;;;;5014920;28;19932;-68
2021/01/02 07:22:16;;;;;;;;;;;;;;;;;;5011472;28;20399;-68
2021/01/02 07:24:42;;;;;;;;;;;;;;;;;;5014265;28;19926;-68
2021/01/02 07:27:09;;;;;;;;;;;;;;;;;;5011388;28;20358;-69
2021/01/02 07:29:35;;;;;;;;;;;;;;;;;;5005764;28;19941;-69
2021/01/02 07:32:02;;;;;;;;;;;;;;;;;;5013591;28;19925;-68
2021/01/02 07:34:28;;;;;;;;;;;;;;;;;;5009583;28;19925;-69
2021/01/02 07:36:54;;;;;;;;;;;;;;;;;;5010698;28;19925;-69
2021/01/02 07:39:21;;;;;;;;;;;;;;;;;;5011137;28;19925;-69
2021/01/02 07:41:47;;;;;;;;;;;;;;;;;;5011169;28;20429;-68
2021/01/02 07:44:14;;;;;;;;;;;;;;;;;;5011591;28;19926;-68
2021/01/02 07:46:41;;;;;;;;;;;;;;;;;;5011908;28;19925;-68
2021/01/02 07:49:07;;;;;;;;;;;;;;;;;;5008338;28;19940;-68
2021/01/02 07:51:34;;;;;;;;;;;;;;;;;;5009703;28;19969;-68
2021/01/02 07:54:00;;;;;;;;;;;;;;;;;;5004082;28;19932;-67
2021/01/02 07:56:26;;;;;;;;;;;;;;;;;;5011566;28;19929;-68
2021/01/02 07:58:53;;;;;;;;;;;;;;;;;;5015606;28;20261;-68
2021/01/02 08:01:19;;;;;;;;;;;;;;;;;;5009384;28;19934;-69
2021/01/02 08:03:46;;;;;;;;;;;;;;;;;;5005870;28;19961;-68
2021/01/02 08:06:12;;;;;;;;;;;;;;;;;;5005634;28;19929;-69
2021/01/02 08:08:39;;;;;;;;;;;;;;;;;;5011988;28;19925;-67
2021/01/02 08:11:05;;;;;;;;;;;;;;;;;;5011450;28;19925;-68
2021/01/02 08:13:32;;;;;;;;;;;;;;;;;;5010898;28;19931;-69
2021/01/02 08:15:58;;;;;;;;;;;;;;;;;;5008995;28;19925;-70
2021/01/02 08:18:25;;;;;;;;;;;;;;;;;;5010272;28;19934;-68
2021/01/02 08:20:51;;;;;;;;;;;;;;;;;;5013757;28;20375;-69
2021/01/02 08:23:18;;;;;;;;;;;;;;;;;;5012226;28;20375;-68
2021/01/02 08:25:45;;;;;;;;;;;;;;;;;;5011326;28;19925;-69
2021/01/02 08:28:11;;;;;;;;;;;;;;;;;;5011349;28;19933;-69
2021/01/02 08:30:38;;;;;;;;;;;;;;;;;;5010399;28;19932;-68
2021/01/02 08:33:04;;;;;;;;;;;;;;;;;;5007565;28;20399;-71
2021/01/02 08:35:31;;;;;;;;;;;;;;;;;;5011505;28;19971;-69
2021/01/02 08:37:57;;;;;;;;;;;;;;;;;;5011367;28;19936;-69
2021/01/02 08:40:24;;;;;;;;;;;;;;;;;;5008563;28;19926;-68
2021/01/02 08:42:50;;;;;;;;;;;;;;;;;;5012533;28;20388;-69
2021/01/02 08:45:16;;;;;;;;;;;;;;;;;;5011147;28;19959;-69
2021/01/02 08:47:43;;;;;;;;;;;;;;;;;;5010920;28;19925;-69
2021/01/02 08:50:09;;;;;;;;;;;;;;;;;;5008570;28;19926;-68
2021/01/02 08:52:36;;;;;;;;;;;;;;;;;;5003768;28;19929;-69
2021/01/02 08:55:02;;;;;;;;;;;;;;;;;;5013152;28;19932;-70
2021/01/02 08:57:29;;;;;;;;;;;;;;;;;;5014537;28;19929;-70
2021/01/02 08:59:55;;;;;;;;;;;;;;;;;;5010275;28;19937;-70
2021/01/02 09:02:22;;;;;;;;;;;;;;;;;;5009925;28;20425;-68
2021/01/02 09:04:48;;;;;;;;;;;;;;;;;;5008339;28;19925;-68
2021/01/02 09:07:15;;;;;;;;;;;;;;;;;;5010680;28;19925;-70
2021/01/02 09:09:41;;;;;;;;;;;;;;;;;;5009974;28;20406;-70
2021/01/02 09:12:08;;;;;;;;;;;;;;;;;;5012148;28;19925;-69
2021/01/02 09:14:34;;;;;;;;;;;;;;;;;;5010376;28;20008;-70
2021/01/02 09:17:01;;;;;;;;;;;;;;;;;;5010417;28;20040;-70
2021/01/02 09:19:27;;;;;;;;;;;;;;;;;;5010516;28;20457;-70
2021/01/02 09:21:54;;;;;;;;;;;;;;;;;;5010765;28;19933;-69
2021/01/02 09:24:20;;;;;;;;;;;;;;;;;;5011603;28;20324;-69
2021/01/02 09:26:47;;;;;;;;;;;;;;;;;;5012532;28;19929;-69
2021/01/02 09:29:13;;;;;;;;;;;;;;;;;;5012034;28;19988;-70
2021/01/02 09:31:40;;;;;;;;;;;;;;;;;;5011977;28;19926;-70
2021/01/02 09:34:06;;;;;;;;;;;;;;;;;;5011819;28;19933;-70
2021/01/02 09:36:33;;;;;;;;;;;;;;;;;;5011266;28;20375;-70
2021/01/02 09:38:59;;;;;;;;;;;;;;;;;;5000276;28;19926;-69
2021/01/02 09:41:26;;;;;;;;;;;;;;;;;;5011343;28;20285;-69
2021/01/02 09:43:54;;;;;;;;;;;;;;;;;;5014551;28;19940;-69
2021/01/02 09:46:20;;;;;;;;;;;;;;;;;;5014763;28;19926;-68
2021/01/02 09:48:47;;;;;;;;;;;;;;;;;;5016678;28;19929;-68
2021/01/02 09:51:13;;;;;;;;;;;;;;;;;;5014647;28;19925;-68
2021/01/02 09:53:40;;;;;;;;;;;;;;;;;;5010948;28;20674;-69
2021/01/02 09:56:06;;;;;;;;;;;;;;;;;;5024999;28;19929;-69
2021/01/02 09:58:33;;;;;;;;;;;;;;;;;;5022739;28;19965;-69
2021/01/02 10:00:59;;;;;;;;;;;;;;;;;;5021844;28;19936;-69
2021/01/02 10:03:28;;;;;;;;;;;;;;;;;;5016550;28;19930;-68
2021/01/02 10:05:54;;;;;;;;;;;;;;;;;;5008748;28;19925;-69
2021/01/02 10:08:21;;;;;;;;;;;;;;;;;;5014157;28;19961;-69
2021/01/02 10:10:47;;;;;;;;;;;;;;;;;;5013154;28;20334;-69
2021/01/02 10:13:14;;;;;;;;;;;;;;;;;;5014411;28;20402;-69
2021/01/02 10:15:40;;;;;;;;;;;;;;;;;;5014164;28;20017;-69
2021/01/02 10:18:07;;;;;;;;;;;;;;;;;;5013430;28;19925;-69
2021/01/02 10:20:35;;;;;;;;;;;;;;;;;;5012242;28;19926;-69
2021/01/02 10:23:01;;;;;;;;;;;;;;;;;;5013018;28;19926;-68
2021/01/02 10:25:28;;;;;;;;;;;;;;;;;;5010314;28;19986;-70
2021/01/02 10:27:54;;;;;;;;;;;;;;;;;;5011658;28;19934;-69
2021/01/02 10:30:21;;;;;;;;;;;;;;;;;;5011873;28;20024;-69
2021/01/02 10:32:47;;;;;;;;;;;;;;;;;;5011385;28;19932;-70
2021/01/02 10:35:14;;;;;;;;;;;;;;;;;;5012472;28;20004;-69
2021/01/02 10:37:40;;;;;;;;;;;;;;;;;;5012541;28;20421;-68
2021/01/02 10:40:07;;;;;;;;;;;;;;;;;;5010655;28;20364;-69
2021/01/02 10:42:33;;;;;;;;;;;;;;;;;;5014579;28;20402;-69
2021/01/02 10:45:01;;;;;;;;;;;;;;;;;;5009350;28;19925;-69
2021/01/02 10:47:27;;;;;;;;;;;;;;;;;;5003529;28;19929;-70
2021/01/02 10:49:54;;;;;;;;;;;;;;;;;;5013844;28;21501;-69
2021/01/02 10:52:20;;;;;;;;;;;;;;;;;;5012815;28;20016;-67
2021/01/02 10:54:47;;;;;;;;;;;;;;;;;;5012849;28;19952;-67
2021/01/02 10:57:13;;;;;;;;;;;;;;;;;;5013001;28;20016;-67
2021/01/02 10:59:40;;;;;;;;;;;;;;;;;;5012020;28;19932;-69
2021/01/02 11:02:06;;;;;;;;;;;;;;;;;;5009618;28;20387;-69
2021/01/02 11:04:33;;;;;;;;;;;;;;;;;;5009643;28;19953;-69
2021/01/02 11:06:59;;;;;;;;;;;;;;;;;;5011328;28;19925;-69
2021/01/02 11:09:26;;;;;;;;;;;;;;;;;;5011085;28;19987;-68
2021/01/02 11:11:52;;;;;;;;;;;;;;;;;;5010781;28;19972;-69
2021/01/02 11:14:19;;;;;;;;;;;;;;;;;;5043195;23;19933;-63
2021/01/02 11:16:45;;;;;;;;;;;;;;;;;;5013140;28;19930;-66
2021/01/02 11:19:12;;;;;;;;;;;;;;;;;;5011996;28;19940;-67
2021/01/02 11:21:38;;;;;;;;;;;;;;;;;;5013323;28;19945;-66
2021/01/02 11:24:05;;;;;;;;;;;;;;;;;;5011658;28;20267;-65
2021/01/02 11:26:31;;;;;;;;;;;;;;;;;;5012981;28;19968;-65
2021/01/02 11:28:58;;;;;;;;;;;;;;;;;;5010398;28;20017;-65
2021/01/02 11:31:24;;;;;;;;;;;;;;;;;;5010588;28;19933;-65
2021/01/02 11:33:51;;;;;;;;;;;;;;;;;;5012968;28;19929;-65
2021/01/02 11:36:17;;;;;;;;;;;;;;;;;;5010982;28;20008;-64
2021/01/02 11:38:44;;;;;;;;;;;;;;;;;;5012368;28;19925;-63
2021/01/02 11:41:10;;;;;;;;;;;;;;;;;;5009852;28;19965;-63
2021/01/02 11:43:37;;;;;;;;;;;;;;;;;;5011535;28;19980;-65
2021/01/02 11:46:03;;;;;;;;;;;;;;;;;;5012285;28;19948;-63
2021/01/02 11:48:30;;;;;;;;;;;;;;;;;;5010925;28;19949;-63
2021/01/02 11:50:56;;;;;;;;;;;;;;;;;;5012399;28;19931;-63
2021/01/02 11:53:23;;;;;;;;;;;;;;;;;;5011894;28;19925;-63
2021/01/02 11:55:51;;;;;;;;;;;;;;;;;;5012414;28;19973;-63
2021/01/02 11:58:17;;;;;;;;;;;;;;;;;;5013851;28;19935;-63
2021/01/02 12:00:44;;;;;;;;;;;;;;;;;;5012058;28;19932;-63
2021/01/02 12:03:10;;;;;;;;;;;;;;;;;;5011960;28;19929;-64
2021/01/02 12:05:37;;;;;;;;;;;;;;;;;;5012502;28;19995;-64
2021/01/02 12:08:03;;;;;;;;;;;;;;;;;;5009271;28;19937;-63
2021/01/02 12:10:30;;;;;;;;;;;;;;;;;;5011840;28;20003;-64
2021/01/02 12:12:56;;;;;;;;;;;;;;;;;;5011547;28;19935;-64
2021/01/02 12:15:23;;;;;;;;;;;;;;;;;;5010330;28;20004;-63
2021/01/02 12:17:49;;;;;;;;;;;;;;;;;;5006183;28;20379;-64
2021/01/02 12:20:16;;;;;;;;;;;;;;;;;;5009001;28;19932;-64
2021/01/02 12:22:42;;;;;;;;;;;;;;;;;;5009018;28;19925;-64
2021/01/02 12:25:09;;;;;;;;;;;;;;;;;;5004873;28;19925;-64
2021/01/02 12:27:35;;;;;;;;;;;;;;;;;;5011121;28;19937;-64
2021/01/02 12:30:02;;;;;;;;;;;;;;;;;;5010546;28;19986;-64
2021/01/02 12:32:28;;;;;;;;;;;;;;;;;;5009001;28;19932;-64
2021/01/02 12:34:55;;;;;;;;;;;;;;;;;;5010250;28;19929;-65
2021/01/02 12:37:22;;;;;;;;;;;;;;;;;;5010578;28;19925;-64
2021/01/02 12:39:48;;;;;;;;;;;;;;;;;;5010941;28;19932;-64
2021/01/02 12:42:15;;;;;;;;;;;;;;;;;;5010463;28;20407;-65
2021/01/02 12:44:41;;;;;;;;;;;;;;;;;;5010387;28;19925;-64
2021/01/02 12:47:08;;;;;;;;;;;;;;;;;;5009301;28;19932;-64
2021/01/02 12:49:34;;;;;;;;;;;;;;;;;;5010824;28;19925;-64
2021/01/02 12:52:01;;;;;;;;;;;;;;;;;;5009363;28;19925;-64
2021/01/02 12:54:27;;;;;;;;;;;;;;;;;;5014524;28;20008;-63
2021/01/02 12:56:54;;;;;;;;;;;;;;;;;;5011184;28;20345;-64
2021/01/02 12:59:20;;;;;;;;;;;;;;;;;;5010194;28;19929;-64
2021/01/02 13:01:47;;;;;;;;;;;;;;;;;;5010982;28;19987;-64
2021/01/02 13:04:13;;;;;;;;;;;;;;;;;;5011587;28;20020;-63
2021/01/02 13:06:40;;;;;;;;;;;;;;;;;;5007302;28;19925;-65
2021/01/02 13:09:06;;;;;;;;;;;;;;;;;;5009454;28;20173;-63
2021/01/02 13:11:33;;;;;;;;;;;;;;;;;;5010387;28;20284;-63
2021/01/02 13:13:59;;;;;;;;;;;;;;;;;;5009872;28;19926;-63
2021/01/02 13:16:26;;;;;;;;;;;;;;;;;;5011409;28;20028;-63
2021/01/02 13:18:52;;;;;;;;;;;;;;;;;;4998186;28;19925;-63
2021/01/02 13:21:19;;;;;;;;;;;;;;;;;;5010589;28;20024;-64
2021/01/02 13:23:45;;;;;;;;;;;;;;;;;;5009358;28;19929;-63
2021/01/02 13:26:12;;;;;;;;;;;;;;;;;;5014126;28;19925;-64
2021/01/02 13:28:39;;;;;;;;;;;;;;;;;;5013949;28;20016;-63
2021/01/02 13:31:05;;;;;;;;;;;;;;;;;;5013793;28;19929;-64
2021/01/02 13:33:32;;;;;;;;;;;;;;;;;;5014917;28;19932;-64
2021/01/02 13:35:58;;;;;;;;;;;;;;;;;;5014196;28;19936;-63
2021/01/02 13:38:25;;;;;;;;;;;;;;;;;;5014831;28;19930;-64
2021/01/02 13:40:51;;;;;;;;;;;;;;;;;;5013982;28;20040;-64
2021/01/02 13:43:18;;;;;;;;;;;;;;;;;;5013941;28;19926;-64
2021/01/02 13:45:44;;;;;;;;;;;;;;;;;;5013744;28;19956;-63
2021/01/02 13:48:11;;;;;;;;;;;;;;;;;;5010083;28;19941;-64
2021/01/02 13:50:37;;;;;;;;;;;;;;;;;;5011488;28;19926;-64
2021/01/02 13:53:04;;;;;;;;;;;;;;;;;;5014144;28;20383;-62
2021/01/02 13:55:30;;;;;;;;;;;;;;;;;;5014638;28;19926;-63
2021/01/02 13:57:56;;;;;;;;;;;;;;;;;;5013867;28;19925;-64
2021/01/02 14:00:23;;;;;;;;;;;;;;;;;;5013218;28;20446;-64
2021/01/02 14:02:49;;;;;;;;;;;;;;;;;;5013728;28;19932;-64
2021/01/02 14:05:16;;;;;;;;;;;;;;;;;;5013792;28;19925;-64
2021/01/02 14:07:44;;;;;;;;;;;;;;;;;;5013681;28;19932;-64
2021/01/02 14:10:10;;;;;;;;;;;;;;;;;;5013816;28;20346;-64
2021/01/02 14:12:37;;;;;;;;;;;;;;;;;;5012714;28;19929;-64
2021/01/02 14:15:03;;;;;;;;;;;;;;;;;;5012827;28;19929;-63
2021/01/02 14:17:30;;;;;;;;;;;;;;;;;;5013064;28;19943;-64
2021/01/02 14:19:56;;;;;;;;;;;;;;;;;;5013783;28;20011;-64
2021/01/02 14:22:23;;;;;;;;;;;;;;;;;;5014140;28;19987;-64
2021/01/02 14:24:50;;;;;;;;;;;;;;;;;;5013147;28;19932;-65
2021/01/02 14:27:17;;;;;;;;;;;;;;;;;;5010179;28;19926;-65
2021/01/02 14:29:43;;;;;;;;;;;;;;;;;;5012673;28;20537;-64
2021/01/02 14:32:10;;;;;;;;;;;;;;;;;;5006531;28;19985;-67
2021/01/02 14:34:36;;;;;;;;;;;;;;;;;;5013555;28;20024;-63
2021/01/02 14:37:03;;;;;;;;;;;;;;;;;;5013821;28;20307;-65
2021/01/02 14:39:29;;;;;;;;;;;;;;;;;;5013770;28;19931;-64
2021/01/02 14:41:56;;;;;;;;;;;;;;;;;;5014325;28;20020;-64
2021/01/02 14:44:22;;;;;;;;;;;;;;;;;;5013463;28;19929;-63
2021/01/02 14:46:49;;;;;;;;;;;;;;;;;;5012986;28;19925;-63
2021/01/02 14:49:15;;;;;;;;;;;;;;;;;;5012318;28;19983;-63
2021/01/02 14:51:42;;;;;;;;;;;;;;;;;;5013630;28;20032;-64
2021/01/02 14:54:09;;;;;;;;;;;;;;;;;;5012450;28;20414;-63
2021/01/02 14:56:35;;;;;;;;;;;;;;;;;;5013543;28;19959;-63
2021/01/02 14:59:02;;;;;;;;;;;;;;;;;;5008055;28;19932;-62
2021/01/02 15:01:28;;;;;;;;;;;;;;;;;;5014221;28;19953;-62
2021/01/02 15:03:55;;;;;;;;;;;;;;;;;;5012681;28;19986;-65
2021/01/02 15:06:21;;;;;;;;;;;;;;;;;;5013058;28;20315;-64
2021/01/02 15:08:48;;;;;;;;;;;;;;;;;;5012130;28;19925;-63
2021/01/02 15:11:14;;;;;;;;;;;;;;;;;;5012714;28;19932;-63
2021/01/02 15:13:41;;;;;;;;;;;;;;;;;;5012217;28;20345;-63
2021/01/02 15:16:07;;;;;;;;;;;;;;;;;;5012272;28;19932;-64
2021/01/02 15:18:33;;;;;;;;;;;;;;;;;;5012347;28;19926;-68
2021/01/02 15:21:00;;;;;;;;;;;;;;;;;;5013193;28;19929;-63
2021/01/02 15:23:27;;;;;;;;;;;;;;;;;;5008464;28;20379;-63
2021/01/02 15:25:54;;;;;;;;;;;;;;;;;;5008795;28;19929;-64
2021/01/02 15:28:20;;;;;;;;;;;;;;;;;;5012566;28;20295;-64
2021/01/02 15:30:47;;;;;;;;;;;;;;;;;;5010469;28;19925;-64
2021/01/02 15:33:13;;;;;;;;;;;;;;;;;;5011254;28;20027;-64
2021/01/02 15:35:39;;;;;;;;;;;;;;;;;;5012499;28;20306;-64
2021/01/02 15:38:08;;;;;;;;;;;;;;;;;;5010639;28;19940;-64
2021/01/02 15:40:34;;;;;;;;;;;;;;;;;;5011918;28;20196;-63
2021/01/02 15:43:01;;;;;;;;;;;;;;;;;;5012292;28;19925;-64
2021/01/02 15:45:27;;;;;;;;;;;;;;;;;;5010773;28;20380;-64
2021/01/02 15:47:54;;;;;;;;;;;;;;;;;;5010525;28;19930;-64
2021/01/02 15:50:20;;;;;;;;;;;;;;;;;;5009755;28;19925;-63
2021/01/02 15:52:46;;;;;;;;;;;;;;;;;;5012459;28;19936;-65
2021/01/02 15:55:13;;;;;;;;;;;;;;;;;;5010026;28;19925;-63
2021/01/02 15:57:39;;;;;;;;;;;;;;;;;;5006376;28;20303;-64
2021/01/02 16:00:06;;;;;;;;;;;;;;;;;;5011525;28;19987;-64
2021/01/02 16:02:32;;;;;;;;;;;;;;;;;;5011565;28;19932;-64
2021/01/02 16:04:59;;;;;;;;;;;;;;;;;;5011319;28;19925;-64
2021/01/02 16:07:25;;;;;;;;;;;;;;;;;;5010540;28;20011;-64
2021/01/02 16:09:55;;;;;;;;;;;;;;;;;;5007093;28;20008;-64
2021/01/02 16:12:21;;;;;;;;;;;;;;;;;;5006599;28;19933;-67
2021/01/02 16:14:49;;;;;;;;;;;;;;;;;;5005370;28;20002;-65
2021/01/02 16:17:16;;;;;;;;;;;;;;;;;;5011497;28;19933;-64
2021/01/02 16:19:42;;;;;;;;;;;;;;;;;;5009373;28;19932;-65
2021/01/02 16:22:08;;;;;;;;;;;;;;;;;;5009951;28;19925;-64
2021/01/02 16:24:37;;;;;;;;;;;;;;;;;;5010280;28;20743;-65
2021/01/02 16:27:03;;;;;;;;;;;;;;;;;;5012510;28;19965;-64
2021/01/02 16:29:30;;;;;;;;;;;;;;;;;;5011737;28;19926;-64
2021/01/02 16:31:56;;;;;;;;;;;;;;;;;;5014066;28;19926;-64
2021/01/02 16:34:23;;;;;;;;;;;;;;;;;;5010256;28;19934;-63
2021/01/02 16:36:49;;;;;;;;;;;;;;;;;;5005544;28;19932;-64
2021/01/02 16:39:17;;;;;;;;;;;;;;;;;;5010903;28;20383;-65